Sea Amore — H9OC — position and weather

sailwx.info

Track history (hours):
 
Tides and Currents Weather Stations Pressure Air Temp Water Temp Dewpoint Dewpoint Depression Visibility Wind Speed Wind Dir Waves Ship Positions

Sea Amore

Last reported at 2015-May-17 10:07 UTC. Time now 2015-May-23 13:25 UTC.
Position N 37°15' E 027°35'.

; draft 5.4 m.

Type: Cargo ship. MMSI: 357019000.

Date/timePositionNaut miles runAvg speedWind from/ knotsBaromVisibWave heightAir tempDewpointWater temp
2015-May-17 10:07N 37°15' E 027°35'0 0.0
2015-May-17 09:31N 37°15' E 027°35'0 0.0
2015-May-17 08:16N 37°15' E 027°35'0 0.1
2015-May-17 05:22N 37°15' E 027°35'0 0.0
2015-May-16 21:13N 37°15' E 027°35'0 0.0
2015-May-16 19:28N 37°15' E 027°35'24 2.4
2015-May-16 09:26N 37°14' E 027°05'1313.6
2015-May-16 08:27N 37°14' E 026°48'1512.1
2015-May-16 07:12N 36°59' E 026°47'914.4
2015-May-16 06:33N 36°50' E 026°50'1413.7
2015-May-16 05:33N 36°38' E 026°57'1312.8
2015-May-16 04:33N 36°32' E 027°11'1414.1
2015-May-16 03:33N 36°31' E 027°29'1413.7
2015-May-16 02:30N 36°29' E 027°46'2613.3
2015-May-16 00:33N 36°28' E 028°19'1713.4
2015-May-15 23:17N 36°20' E 028°37'20913.3
2015-May-15 07:32N 34°40' E 032°23'1313.0
2015-May-15 06:33N 34°34' E 032°36'1312.9
2015-May-15 05:33N 34°29' E 032°51'1312.8
2015-May-15 04:33N 34°26' E 033°06'1312.7
2015-May-15 03:32N 34°22' E 033°21'1212.2
2015-May-15 02:33N 34°19' E 033°35'1212.1
2015-May-15 01:33N 34°16' E 033°49'1212.2
2015-May-15 00:33N 34°12' E 034°03'1612.2
2015-May-14 23:15N 34°08' E 034°22'  
2015-May-11 17:12N 33°54' E 035°31'0 0.0
2015-May-11 16:27N 33°54' E 035°31'0 0.0
2015-May-11 15:30N 33°54' E 035°31'0 0.0
2015-May-11 14:33N 33°54' E 035°31'1 0.0
2015-May-09 14:24N 33°55' E 035°31'0 0.1
2015-May-09 13:27N 33°55' E 035°31'0 0.0
2015-May-09 12:27N 33°55' E 035°31'0 0.1
2015-May-09 11:33N 33°55' E 035°31'0 0.0
2015-May-09 10:21N 33°55' E 035°31'0 0.0
2015-May-09 09:33N 33°55' E 035°31'0 0.0
2015-May-09 02:26N 33°55' E 035°31'0 0.0
2015-May-09 01:23N 33°55' E 035°31'0 0.0
2015-May-08 23:05N 33°55' E 035°31'0 0.0
2015-May-08 22:29N 33°55' E 035°31'0 0.0
2015-May-08 21:29N 33°55' E 035°31'0 0.0
2015-May-08 18:26N 33°55' E 035°31'0 0.0
2015-May-08 17:33N 33°55' E 035°31'0 0.0
2015-May-08 16:20N 33°55' E 035°31'0 0.0
2015-May-08 15:20N 33°55' E 035°31'0 0.0
2015-May-08 14:17N 33°55' E 035°31'0 0.0
2015-May-08 07:29N 33°55' E 035°31'  
Track history (hours):
 
Tides and Currents Weather Stations Pressure Air Temp Water Temp Dewpoint Dewpoint Depression Visibility Wind Speed Wind Dir Waves Ship Positions

Sea Amore

Last reported at 2015-May-17 10:07 UTC. Time now 2015-May-23 13:25 UTC.
Position N 37°15' E 027°35'.

; draft 5.4 m.

Type: Cargo ship. MMSI: 357019000.

Date/timePositionNaut miles runAvg speedWind from/ knotsBaromVisibWave heightAir tempDewpointWater temp
2015-May-17 10:07N 37°15' E 027°35'0 0.0
2015-May-17 09:31N 37°15' E 027°35'0 0.0
2015-May-17 08:16N 37°15' E 027°35'0 0.1
2015-May-17 05:22N 37°15' E 027°35'0 0.0
2015-May-16 21:13N 37°15' E 027°35'0 0.0
2015-May-16 19:28N 37°15' E 027°35'24 2.4
2015-May-16 09:26N 37°14' E 027°05'1313.6
2015-May-16 08:27N 37°14' E 026°48'1512.1
2015-May-16 07:12N 36°59' E 026°47'914.4
2015-May-16 06:33N 36°50' E 026°50'1413.7
2015-May-16 05:33N 36°38' E 026°57'1312.8
2015-May-16 04:33N 36°32' E 027°11'1414.1
2015-May-16 03:33N 36°31' E 027°29'1413.7
2015-May-16 02:30N 36°29' E 027°46'2613.3
2015-May-16 00:33N 36°28' E 028°19'1713.4
2015-May-15 23:17N 36°20' E 028°37'20913.3
2015-May-15 07:32N 34°40' E 032°23'1313.0
2015-May-15 06:33N 34°34' E 032°36'1312.9
2015-May-15 05:33N 34°29' E 032°51'1312.8
2015-May-15 04:33N 34°26' E 033°06'1312.7
2015-May-15 03:32N 34°22' E 033°21'1212.2
2015-May-15 02:33N 34°19' E 033°35'1212.1
2015-May-15 01:33N 34°16' E 033°49'1212.2
2015-May-15 00:33N 34°12' E 034°03'1612.2
2015-May-14 23:15N 34°08' E 034°22'  
2015-May-11 17:12N 33°54' E 035°31'0 0.0
2015-May-11 16:27N 33°54' E 035°31'0 0.0
2015-May-11 15:30N 33°54' E 035°31'0 0.0
2015-May-11 14:33N 33°54' E 035°31'1 0.0
2015-May-09 14:24N 33°55' E 035°31'0 0.1
2015-May-09 13:27N 33°55' E 035°31'0 0.0
2015-May-09 12:27N 33°55' E 035°31'0 0.1
2015-May-09 11:33N 33°55' E 035°31'0 0.0
2015-May-09 10:21N 33°55' E 035°31'0 0.0
2015-May-09 09:33N 33°55' E 035°31'0 0.0
2015-May-09 02:26N 33°55' E 035°31'0 0.0
2015-May-09 01:23N 33°55' E 035°31'0 0.0
2015-May-08 23:05N 33°55' E 035°31'0 0.0
2015-May-08 22:29N 33°55' E 035°31'0 0.0
2015-May-08 21:29N 33°55' E 035°31'0 0.0
2015-May-08 18:26N 33°55' E 035°31'0 0.0
2015-May-08 17:33N 33°55' E 035°31'0 0.0
2015-May-08 16:20N 33°55' E 035°31'0 0.0
2015-May-08 15:20N 33°55' E 035°31'0 0.0
2015-May-08 14:17N 33°55' E 035°31'0 0.0
2015-May-08 07:29N 33°55' E 035°31'  

Dump ship's entire track history